createdAt,value
2019-04-01T00:01:44.232Z,28.42
2019-04-01T00:04:14.649Z,28.80
2019-04-01T00:06:44.983Z,27.93
2019-04-01T00:09:15.312Z,27.80
2019-04-01T00:11:45.621Z,27.35
2019-04-01T00:14:15.946Z,28.23
2019-04-01T00:16:46.228Z,27.45
2019-04-01T00:19:16.620Z,28.90
2019-04-01T00:21:46.931Z,27.30
2019-04-01T00:24:17.265Z,26.87
2019-04-01T00:26:47.587Z,26.02
2019-04-01T00:29:17.891Z,26.77
2019-04-01T00:31:48.263Z,25.72
2019-04-01T00:34:18.905Z,26.50
2019-04-01T00:36:49.181Z,26.12
2019-04-01T00:39:19.467Z,25.80
2019-04-01T00:42:05.119Z,25.90
2019-04-01T00:44:35.415Z,24.55
2019-04-01T00:47:05.668Z,24.02
2019-04-01T00:49:35.994Z,25.20
2019-04-01T00:52:06.272Z,24.65
2019-04-01T00:54:36.819Z,29.32
2019-04-01T00:57:07.068Z,24.25
2019-04-01T00:59:37.371Z,28.15
2019-04-01T01:02:07.649Z,29.63
2019-04-01T01:04:37.996Z,27.27
2019-04-01T01:07:08.264Z,28.92
2019-04-01T01:09:38.586Z,29.20
2019-04-01T01:12:08.886Z,31.17
2019-04-01T01:14:39.184Z,30.95
2019-04-01T01:17:09.477Z,32.23
2019-04-01T01:19:39.836Z,32.00
2019-04-01T01:22:10.131Z,32.42
2019-04-01T01:24:40.439Z,31.77
2019-04-01T01:27:09.591Z,31.30
2019-04-01T01:29:39.793Z,34.67
2019-04-01T01:32:10.081Z,33.58
2019-04-01T01:34:40.327Z,31.65
2019-04-01T01:37:10.671Z,32.55
2019-04-01T01:39:40.931Z,32.23
2019-04-01T01:42:11.353Z,33.55
2019-04-01T01:44:44.368Z,33.70
2019-04-01T01:47:14.640Z,31.37
2019-04-01T01:49:44.904Z,31.82
2019-04-01T01:52:15.201Z,33.28
2019-04-01T01:54:45.524Z,33.18
2019-04-01T01:57:15.764Z,32.88
2019-04-01T01:59:46.030Z,32.15
2019-04-01T02:02:16.381Z,33.15
2019-04-01T02:04:46.735Z,32.95
2019-04-01T02:07:18.072Z,31.68
2019-04-01T02:09:48.434Z,30.70
2019-04-01T02:12:18.740Z,32.78
2019-04-01T02:14:49.013Z,31.48
2019-04-01T02:17:19.312Z,30.08
2019-04-01T02:19:49.549Z,32.33
2019-04-01T02:22:19.870Z,32.30
2019-04-01T02:24:50.081Z,30.48
2019-04-01T02:27:20.347Z,31.70
2019-04-01T02:29:50.717Z,31.73
2019-04-01T02:32:21.999Z,29.48
2019-04-01T02:34:52.317Z,29.75
2019-04-01T02:37:22.571Z,31.17
2019-04-01T02:39:52.912Z,31.30
2019-04-01T02:42:23.341Z,29.92
2019-04-01T02:44:53.646Z,29.67
2019-04-01T02:47:23.964Z,31.82
2019-04-01T02:49:54.287Z,29.02
2019-04-01T02:52:24.584Z,28.75
2019-04-01T02:54:53.796Z,27.42
2019-04-01T02:57:23.890Z,28.25
2019-04-01T02:59:54.118Z,28.27
2019-04-01T03:02:24.495Z,33.42
2019-04-01T03:04:54.784Z,38.90
2019-04-01T03:07:25.068Z,37.63
2019-04-01T03:09:55.283Z,56.45
2019-04-01T03:12:25.598Z,51.77
2019-04-01T03:14:55.933Z,41.00
2019-04-01T03:17:26.155Z,38.63
2019-04-01T03:19:56.486Z,39.75
2019-04-01T03:22:26.762Z,40.98
2019-04-01T03:24:57.047Z,44.85
2019-04-01T03:27:27.331Z,45.15
2019-04-01T03:29:57.643Z,43.05
2019-04-01T03:32:28.271Z,42.43
2019-04-01T03:34:58.630Z,41.80
2019-04-01T03:37:28.884Z,42.38
2019-04-01T03:39:59.174Z,41.73
2019-04-01T03:42:29.469Z,42.03
2019-04-01T03:45:02.755Z,41.42
2019-04-01T03:47:33.104Z,40.67
2019-04-01T03:50:03.465Z,43.58
2019-04-01T03:52:33.762Z,42.50
2019-04-01T03:55:04.096Z,42.40
2019-04-01T03:57:34.698Z,43.00
2019-04-01T04:00:09.332Z,41.98
2019-04-01T04:02:39.600Z,39.10
2019-04-01T04:05:09.941Z,41.28
2019-04-01T04:07:40.208Z,41.20
2019-04-01T04:10:10.641Z,40.00
2019-04-01T04:12:40.915Z,39.75
2019-04-01T04:15:11.172Z,38.78
2019-04-01T04:17:41.481Z,39.60
2019-04-01T04:20:11.777Z,40.45
2019-04-01T04:22:42.042Z,40.23
2019-04-01T04:25:12.435Z,38.95
2019-04-01T04:27:42.709Z,39.08
2019-04-01T04:30:14.572Z,38.95
2019-04-01T04:32:44.833Z,38.83
2019-04-01T04:35:16.368Z,35.43
2019-04-01T04:37:46.668Z,35.33
2019-04-01T04:40:16.974Z,36.90
2019-04-01T04:42:48.372Z,37.20
2019-04-01T04:45:18.679Z,41.33
2019-04-01T04:47:48.951Z,41.63
2019-04-01T04:50:19.262Z,39.92
2019-04-01T04:52:51.974Z,45.63
2019-04-01T04:55:22.277Z,42.20
2019-04-01T04:57:52.611Z,39.73
2019-04-01T05:00:22.927Z,39.80
2019-04-01T05:02:54.203Z,39.40
2019-04-01T05:05:24.520Z,45.33
2019-04-01T05:07:55.141Z,48.48
2019-04-01T05:10:25.457Z,50.38
2019-04-01T05:12:55.784Z,46.37
2019-04-01T05:15:27.120Z,45.40
2019-04-01T05:18:02.936Z,45.92
2019-04-01T05:20:34.414Z,47.67
2019-04-01T05:23:04.740Z,47.50
2019-04-01T05:25:36.196Z,49.03
2019-04-01T05:28:06.506Z,49.88
2019-04-01T05:30:37.791Z,51.18
2019-04-01T05:33:08.108Z,50.33
2019-04-01T05:35:38.443Z,49.05
2019-04-01T05:38:08.712Z,48.65
2019-04-01T05:40:38.946Z,49.53
2019-04-01T05:43:09.152Z,50.25
2019-04-01T05:45:41.722Z,47.38
2019-04-01T05:48:14.005Z,47.05
2019-04-01T05:50:44.310Z,48.60
2019-04-01T05:53:14.643Z,46.63
2019-04-01T05:55:44.935Z,47.13
2019-04-01T05:58:15.219Z,47.73
2019-04-01T06:00:50.100Z,47.62
2019-04-01T06:03:22.462Z,46.50
2019-04-01T06:05:53.188Z,46.98
2019-04-01T06:08:23.541Z,47.78
2019-04-01T06:10:54.196Z,44.60
2019-04-01T06:13:24.420Z,43.92
2019-04-01T06:15:55.170Z,45.10
2019-04-01T06:18:25.492Z,45.33
2019-04-01T06:20:55.819Z,42.80
2019-04-01T06:23:26.109Z,45.65
2019-04-01T06:25:56.374Z,43.02
2019-04-01T06:28:26.682Z,44.10
2019-04-01T06:30:56.967Z,43.85
2019-04-01T06:33:27.244Z,42.88
2019-04-01T06:35:57.573Z,44.65
2019-04-01T06:38:28.165Z,42.93
2019-04-01T06:40:58.496Z,41.68
2019-04-01T06:43:28.833Z,42.78
2019-04-01T06:45:59.114Z,43.17
2019-04-01T06:48:29.826Z,42.75
2019-04-01T06:51:00.082Z,41.00
2019-04-01T06:53:32.730Z,40.95
2019-04-01T06:56:03.277Z,41.73
2019-04-01T06:58:33.577Z,41.40
2019-04-01T07:01:03.838Z,39.80
2019-04-01T07:03:34.140Z,38.53
2019-04-01T07:06:04.428Z,38.53
2019-04-01T07:08:34.727Z,38.28
2019-04-01T07:11:05.075Z,39.65
2019-04-01T07:13:35.371Z,39.65
2019-04-01T07:16:15.494Z,38.28
2019-04-01T07:18:37.915Z,38.53
2019-04-01T07:21:08.249Z,38.15
2019-04-01T07:23:38.573Z,37.53
2019-04-01T07:26:09.907Z,38.10
2019-04-01T07:28:40.181Z,37.28
2019-04-01T07:31:10.493Z,35.65
2019-04-01T07:33:40.754Z,36.10
2019-04-01T07:36:13.038Z,36.93
2019-04-01T07:38:43.380Z,36.85
2019-04-01T07:41:13.688Z,36.85
2019-04-01T07:43:43.954Z,35.35
2019-04-01T07:46:14.302Z,35.78
2019-04-01T07:48:44.661Z,36.55
2019-04-01T07:51:15.070Z,35.10
2019-04-01T07:53:45.478Z,33.58
2019-04-01T07:56:17.703Z,34.58
2019-04-01T07:58:48.011Z,34.95
2019-04-01T08:01:18.360Z,35.10
2019-04-01T08:03:48.679Z,36.63
2019-04-01T08:06:18.930Z,34.15
2019-04-01T08:08:49.291Z,37.42
2019-04-01T08:11:19.623Z,34.48
2019-04-01T08:13:49.940Z,33.10
2019-04-01T08:16:23.506Z,34.00
2019-04-01T08:18:53.883Z,33.92
2019-04-01T08:21:25.135Z,32.53
2019-04-01T08:23:55.441Z,32.95
2019-04-01T08:26:25.662Z,33.18
2019-04-01T08:28:55.973Z,32.03
2019-04-01T08:31:26.291Z,33.05
2019-04-01T08:33:56.577Z,31.37
2019-04-01T08:36:26.779Z,30.77
2019-04-01T08:38:57.034Z,31.17
2019-04-01T08:41:27.284Z,32.17
2019-04-01T08:43:57.603Z,31.20
2019-04-01T08:46:27.868Z,30.70
2019-04-01T08:48:58.210Z,31.10
2019-04-01T08:51:28.523Z,31.50
2019-04-01T08:53:58.831Z,31.15
2019-04-01T08:56:29.469Z,30.35
2019-04-01T08:58:59.827Z,30.90
2019-04-01T09:01:35.389Z,29.90
2019-04-01T09:04:03.220Z,29.57
2019-04-01T09:06:33.701Z,29.85
2019-04-01T09:09:05.779Z,28.17
2019-04-01T09:11:38.325Z,28.90
2019-04-01T09:14:08.310Z,29.67
2019-04-01T09:16:39.001Z,29.27
2019-04-01T09:19:11.902Z,28.87
2019-04-01T09:21:42.218Z,28.75
2019-04-01T09:24:12.493Z,29.50
2019-04-01T09:26:43.753Z,29.42
2019-04-01T09:29:14.060Z,28.12
2019-04-01T09:31:44.411Z,30.23
2019-04-01T09:34:14.790Z,27.42
2019-04-01T09:36:45.063Z,29.63
2019-04-01T09:39:15.363Z,27.62
2019-04-01T09:41:45.649Z,28.60
2019-04-01T09:44:16.472Z,29.32
2019-04-01T09:46:49.016Z,27.67
2019-04-01T09:49:18.832Z,27.25
2019-04-01T09:51:49.343Z,27.42
2019-04-01T09:54:19.831Z,27.42
2019-04-01T09:56:50.144Z,26.95
2019-04-01T09:59:20.423Z,27.80
2019-04-01T10:01:50.811Z,25.48
2019-04-01T10:04:21.098Z,26.87
2019-04-01T10:06:51.372Z,25.70
2019-04-01T10:09:21.652Z,26.05
2019-04-01T10:11:51.997Z,26.75
2019-04-01T10:14:22.251Z,26.27
2019-04-01T10:16:53.674Z,25.75
2019-04-01T10:19:23.939Z,25.72
2019-04-01T10:21:55.462Z,27.00
2019-04-01T10:24:25.781Z,25.50
2019-04-01T10:26:56.038Z,26.75
2019-04-01T10:29:26.363Z,24.63
2019-04-01T10:31:56.637Z,26.77
2019-04-01T10:34:26.953Z,25.72
2019-04-01T10:36:57.201Z,26.02
2019-04-01T10:39:27.528Z,24.02
2019-04-01T10:41:57.813Z,24.30
2019-04-01T10:44:31.235Z,24.72
2019-04-01T10:47:01.862Z,25.02
2019-04-01T10:49:32.359Z,25.43
2019-04-01T10:52:06.052Z,24.75
2019-04-01T10:54:36.382Z,25.20
2019-04-01T10:57:06.667Z,24.00
2019-04-01T10:59:36.963Z,23.70
2019-04-01T11:02:07.457Z,24.25
2019-04-01T11:04:37.872Z,22.77
2019-04-01T11:07:08.352Z,24.18
2019-04-01T11:09:38.957Z,24.12
2019-04-01T11:12:10.417Z,23.12
2019-04-01T11:14:40.618Z,23.83
2019-04-01T11:17:10.993Z,23.02
2019-04-01T11:19:41.279Z,23.55
2019-04-01T11:22:11.598Z,23.50
2019-04-01T11:24:41.907Z,23.77
2019-04-01T11:27:12.262Z,23.80
2019-04-01T11:29:43.038Z,23.42
2019-04-01T11:32:13.818Z,22.25
2019-04-01T11:34:44.356Z,23.50
2019-04-01T11:37:17.301Z,22.37
2019-04-01T11:39:47.718Z,21.70
2019-04-01T11:42:18.196Z,21.95
2019-04-01T11:44:48.516Z,22.35
2019-04-01T11:47:21.957Z,21.52
2019-04-01T11:49:50.837Z,23.60
2019-04-01T11:52:21.193Z,23.30
2019-04-01T11:54:51.506Z,20.50
2019-04-01T11:57:21.783Z,24.85
2019-04-01T11:59:52.055Z,20.15
2019-04-01T12:02:22.263Z,21.75
2019-04-01T12:04:52.785Z,21.75
2019-04-01T12:07:23.588Z,23.55
2019-04-01T12:09:55.307Z,21.02
2019-04-01T12:12:26.649Z,20.08
2019-04-01T12:14:57.033Z,19.82
2019-04-01T12:17:27.376Z,23.10
2019-04-01T12:19:57.820Z,22.45
2019-04-01T12:22:30.385Z,24.82
2019-04-01T12:25:02.999Z,23.18
2019-04-01T12:27:33.329Z,20.27
2019-04-01T12:30:04.979Z,19.10
2019-04-01T12:32:37.953Z,19.70
2019-04-01T12:35:08.338Z,18.62
2019-04-01T12:37:38.861Z,19.40
2019-04-01T12:40:11.328Z,21.82
2019-04-01T12:42:41.591Z,19.87
2019-04-01T12:45:11.861Z,19.12
2019-04-01T12:47:43.397Z,20.77
2019-04-01T12:50:14.036Z,19.02
2019-04-01T12:52:44.341Z,18.20
2019-04-01T12:55:14.656Z,18.80
2019-04-01T12:57:48.232Z,18.35
2019-04-01T13:00:16.974Z,19.92
2019-04-01T13:02:47.253Z,17.32
2019-04-01T13:05:17.490Z,17.85
2019-04-01T13:07:47.934Z,18.45
2019-04-01T13:10:18.200Z,17.45
2019-04-01T13:12:48.590Z,17.52
2019-04-01T13:15:18.973Z,18.40
2019-04-01T13:17:51.952Z,18.62
2019-04-01T13:20:36.700Z,17.75
2019-04-01T13:22:54.331Z,17.67
2019-04-01T13:25:25.333Z,17.95
2019-04-01T13:27:57.125Z,18.82
2019-04-01T13:30:28.396Z,18.57
2019-04-01T13:32:58.636Z,18.87
2019-04-01T13:35:29.033Z,59.70
2019-04-01T13:38:00.369Z,105.22
2019-04-01T13:40:30.654Z,82.47
2019-04-01T13:43:04.399Z,59.03
2019-04-01T13:45:33.032Z,51.20
2019-04-01T13:48:03.377Z,49.83
2019-04-01T13:50:33.639Z,47.98
2019-04-01T13:53:04.392Z,44.88
2019-04-01T13:55:34.661Z,42.58
2019-04-01T13:58:05.499Z,40.78
2019-04-01T14:00:35.756Z,41.18
2019-04-01T14:03:06.077Z,38.05
2019-04-01T14:05:37.448Z,37.78
2019-04-01T14:08:07.776Z,37.05
2019-04-01T14:10:40.562Z,35.83
2019-04-01T14:13:10.193Z,37.10
2019-04-01T14:15:40.470Z,35.35
2019-04-01T14:18:10.772Z,35.28
2019-04-01T14:20:41.087Z,36.50
2019-04-01T14:23:11.379Z,43.28
2019-04-01T14:25:42.286Z,48.33
2019-04-01T14:28:13.762Z,50.60
2019-04-01T14:30:44.470Z,49.85
2019-04-01T14:33:14.806Z,47.85
2019-04-01T14:35:45.483Z,46.28
2019-04-01T14:38:15.767Z,44.65
2019-04-01T14:40:46.237Z,45.95
2019-04-01T14:43:16.659Z,44.08
2019-04-01T14:45:46.982Z,44.38
2019-04-01T14:48:17.518Z,45.17
2019-04-01T14:50:48.852Z,42.48
2019-04-01T14:53:19.234Z,41.85
2019-04-01T14:55:52.507Z,44.33
2019-04-01T14:58:23.977Z,41.05
2019-04-01T15:00:54.465Z,41.48
2019-04-01T15:03:27.180Z,42.00
2019-04-01T15:05:57.504Z,41.50
2019-04-01T15:08:28.593Z,40.17
2019-04-01T15:10:58.920Z,39.80
2019-04-01T15:13:29.569Z,39.90
2019-04-01T15:16:00.051Z,38.48
2019-04-01T15:18:34.284Z,38.53
2019-04-01T15:21:04.600Z,39.55
2019-04-01T15:23:35.816Z,37.93
2019-04-01T15:26:08.245Z,37.25
2019-04-01T15:28:38.622Z,37.80
2019-04-01T15:31:08.926Z,37.25
2019-04-01T15:33:39.199Z,36.88
2019-04-01T15:36:09.521Z,37.90
2019-04-01T15:38:39.812Z,37.08
2019-04-01T15:41:10.273Z,36.95
2019-04-01T15:43:41.058Z,36.55
2019-04-01T15:46:11.496Z,35.78
2019-04-01T15:48:41.799Z,36.25
2019-04-01T15:51:12.146Z,35.75
2019-04-01T15:53:42.521Z,36.30
2019-04-01T15:56:12.837Z,34.85
2019-04-01T15:58:43.204Z,33.90
2019-04-01T16:01:13.593Z,35.28
2019-04-01T16:03:43.900Z,32.60
2019-04-01T16:06:14.158Z,34.43
2019-04-01T16:08:44.445Z,33.25
2019-04-01T16:11:14.827Z,33.20
2019-04-01T16:13:45.199Z,33.80
2019-04-01T16:16:15.502Z,32.78
2019-04-01T16:18:45.834Z,34.18
2019-04-01T16:21:16.134Z,33.15
2019-04-01T16:23:47.313Z,31.45
2019-04-01T16:26:18.018Z,31.55
2019-04-01T16:28:50.979Z,31.17
2019-04-01T16:31:21.255Z,30.48
2019-04-01T16:33:51.591Z,31.62
2019-04-01T16:36:21.802Z,30.85
2019-04-01T16:38:52.146Z,30.48
2019-04-01T16:41:22.431Z,31.90
2019-04-01T16:43:52.750Z,32.93
2019-04-01T16:46:23.240Z,29.63
2019-04-01T16:48:54.652Z,30.20
2019-04-01T16:51:25.029Z,34.05
2019-04-01T16:53:56.260Z,30.52
2019-04-01T16:56:26.694Z,30.20
2019-04-01T16:58:57.299Z,26.70
2019-04-01T17:01:27.744Z,24.27
2019-04-01T17:03:58.058Z,24.77
2019-04-01T17:06:28.409Z,25.65
2019-04-01T17:08:58.641Z,24.15
2019-04-01T17:11:30.881Z,25.50
2019-04-01T17:14:01.342Z,26.85
2019-04-01T17:16:35.281Z,22.93
2019-04-01T17:19:07.962Z,20.68
2019-04-01T17:21:38.432Z,23.30
2019-04-01T17:24:08.870Z,23.22
2019-04-01T17:27:00.329Z,23.22
2019-04-01T17:29:31.913Z,24.77
2019-04-01T17:32:02.382Z,23.27
2019-04-01T17:34:32.647Z,23.77
2019-04-01T17:37:02.942Z,24.87
2019-04-01T17:39:34.187Z,34.58
2019-04-01T17:42:05.014Z,39.95
2019-04-01T17:44:35.490Z,40.15
2019-04-01T17:47:06.333Z,32.08
2019-04-01T17:49:36.869Z,28.35
2019-04-01T17:52:07.198Z,28.23
2019-04-01T17:54:40.028Z,29.98
2019-04-01T17:57:11.772Z,27.25
2019-04-01T17:59:42.062Z,30.52
2019-04-01T18:02:13.599Z,32.28
2019-04-01T18:04:46.149Z,27.93
2019-04-01T18:07:17.636Z,27.77
2019-04-01T18:09:48.898Z,27.65
2019-04-01T18:12:19.252Z,27.45
2019-04-01T18:14:49.614Z,26.68
2019-04-01T18:17:23.310Z,24.43
2019-04-01T18:19:53.628Z,29.20
2019-04-01T18:22:24.027Z,29.50
2019-04-01T18:24:54.377Z,28.23
2019-04-01T18:27:24.642Z,26.33
2019-04-01T18:29:55.030Z,25.52
2019-04-01T18:32:27.998Z,24.70
2019-04-01T18:34:58.338Z,26.52
2019-04-01T18:37:29.149Z,27.00
2019-04-01T18:39:59.752Z,23.20
2019-04-01T18:42:33.616Z,23.67
2019-04-01T18:45:04.466Z,22.05
2019-04-01T18:47:34.777Z,23.98
2019-04-01T18:50:05.231Z,23.92
2019-04-01T18:52:35.602Z,22.35
2019-04-01T18:55:10.370Z,22.15
2019-04-01T18:57:40.815Z,21.50
2019-04-01T19:00:12.056Z,20.30
2019-04-01T19:02:43.474Z,23.57
2019-04-01T19:05:13.802Z,24.05
2019-04-01T19:07:44.108Z,26.02
2019-04-01T19:10:14.494Z,26.62
2019-04-01T19:12:43.190Z,26.20
2019-04-01T19:15:15.184Z,27.17
2019-04-01T19:17:45.517Z,24.82
2019-04-01T19:20:15.796Z,25.17
2019-04-01T19:22:47.933Z,25.45
2019-04-01T19:25:18.222Z,24.57
2019-04-01T19:27:49.223Z,28.52
2019-04-01T19:30:20.500Z,25.55
2019-04-01T19:32:50.808Z,24.23
2019-04-01T19:35:21.128Z,25.00
2019-04-01T19:37:51.554Z,27.70
2019-04-01T19:40:23.110Z,27.73
2019-04-01T19:42:53.925Z,27.80
2019-04-01T19:45:24.294Z,29.42
2019-04-01T19:47:57.154Z,29.90
2019-04-01T19:50:26.620Z,30.40
2019-04-01T19:52:56.910Z,30.40
2019-04-01T19:55:27.325Z,30.80
2019-04-01T19:57:57.627Z,31.27
2019-04-01T20:00:29.644Z,30.02
2019-04-01T20:03:00.122Z,32.00
2019-04-01T20:05:31.171Z,31.52
2019-04-01T20:08:01.811Z,30.32
2019-04-01T20:10:32.069Z,31.95
2019-04-01T20:13:02.464Z,31.05
2019-04-01T20:15:32.803Z,32.00
2019-04-01T20:18:03.149Z,33.63
2019-04-01T20:20:33.485Z,31.85
2019-04-01T20:23:05.443Z,31.37
2019-04-01T20:25:35.750Z,31.87
2019-04-01T20:28:06.247Z,33.23
2019-04-01T20:30:37.949Z,32.15
2019-04-01T20:33:17.630Z,30.88
2019-04-01T20:35:40.630Z,33.00
2019-04-01T20:38:11.251Z,30.57
2019-04-01T20:40:41.831Z,31.00
2019-04-01T20:43:12.148Z,31.60
2019-04-01T20:45:42.916Z,29.98
2019-04-01T20:48:15.311Z,31.55
2019-04-01T20:50:45.657Z,30.30
2019-04-01T20:53:16.015Z,31.23
2019-04-01T20:55:48.467Z,31.12
2019-04-01T20:58:19.660Z,30.08
2019-04-01T21:00:50.220Z,29.82
2019-04-01T21:03:20.812Z,30.68
2019-04-01T21:05:51.106Z,30.95
2019-04-01T21:08:21.418Z,30.17
2019-04-01T21:10:51.753Z,32.53
2019-04-01T21:13:22.055Z,40.45
2019-04-01T21:15:52.319Z,41.10
2019-04-01T21:18:22.625Z,39.50
2019-04-01T21:20:52.875Z,37.45
2019-04-01T21:23:23.054Z,38.48
2019-04-01T21:25:53.518Z,39.27
2019-04-01T21:28:24.943Z,35.83
2019-04-01T21:30:55.796Z,36.85
2019-04-01T21:33:26.225Z,36.35
2019-04-01T21:35:56.571Z,37.63
2019-04-01T21:38:26.860Z,35.25
2019-04-01T21:40:57.128Z,35.38
2019-04-01T21:43:27.400Z,34.83
2019-04-01T21:45:57.729Z,36.77
2019-04-01T21:48:27.956Z,34.73
2019-04-01T21:50:58.494Z,34.98
2019-04-01T21:53:28.758Z,34.58
2019-04-01T21:55:59.067Z,34.50
2019-04-01T21:58:29.307Z,35.63
2019-04-01T22:01:00.524Z,34.33
2019-04-01T22:03:32.318Z,33.25
2019-04-01T22:06:02.668Z,33.23
2019-04-01T22:08:32.967Z,35.10
2019-04-01T22:11:03.484Z,35.83
2019-04-01T22:13:33.805Z,33.05
2019-04-01T22:16:04.069Z,33.58
2019-04-01T22:18:34.443Z,34.70
2019-04-01T22:21:04.706Z,40.80
2019-04-01T22:23:35.525Z,34.65
2019-04-01T22:26:05.800Z,31.90
2019-04-01T22:28:36.115Z,33.73
2019-04-01T22:31:06.426Z,33.28
2019-04-01T22:33:35.083Z,32.85
2019-04-01T22:36:05.573Z,32.90
2019-04-01T22:38:35.873Z,34.20
2019-04-01T22:41:06.243Z,34.45
2019-04-01T22:43:36.563Z,34.05
2019-04-01T22:46:06.879Z,32.80
2019-04-01T22:48:37.148Z,32.58
2019-04-01T22:51:08.657Z,32.78
2019-04-01T22:53:41.448Z,33.10
2019-04-01T22:56:11.740Z,31.48
2019-04-01T22:58:43.559Z,32.88
2019-04-01T23:01:13.791Z,32.65
2019-04-01T23:03:44.057Z,31.75
2019-04-01T23:06:14.325Z,32.33
2019-04-01T23:08:45.335Z,32.35
2019-04-01T23:11:15.633Z,32.15
2019-04-01T23:13:45.863Z,31.17
2019-04-01T23:16:16.206Z,30.62
2019-04-01T23:18:46.500Z,30.92
2019-04-01T23:21:16.734Z,31.60
2019-04-01T23:23:47.003Z,30.88
2019-04-01T23:26:17.301Z,29.27
2019-04-01T23:28:48.574Z,30.43
2019-04-01T23:31:18.858Z,30.32
2019-04-01T23:33:49.567Z,30.88
2019-04-01T23:36:20.193Z,29.57
2019-04-01T23:38:53.557Z,30.62
2019-04-01T23:41:23.840Z,30.55
2019-04-01T23:43:54.208Z,29.25
2019-04-01T23:46:25.372Z,29.65
2019-04-01T23:48:55.637Z,29.57
2019-04-01T23:51:25.912Z,29.65
2019-04-01T23:53:56.246Z,28.40
2019-04-01T23:56:29.656Z,27.32
2019-04-01T23:58:59.907Z,28.40
